sensor_id;sensor_type;location;lat;lon;timestamp;temperature;humidity
55642;DHT22;41509;53.108;6.100;2022-08-30T00:00:40;15.30;99.90
55642;DHT22;41509;53.108;6.100;2022-08-30T00:03:24;15.30;99.90
55642;DHT22;41509;53.108;6.100;2022-08-30T00:05:51;15.40;99.90
55642;DHT22;41509;53.108;6.100;2022-08-30T00:08:20;15.40;99.90
55642;DHT22;41509;53.108;6.100;2022-08-30T00:10:45;15.40;99.90
55642;DHT22;41509;53.108;6.100;2022-08-30T00:13:12;15.40;99.90
55642;DHT22;41509;53.108;6.100;2022-08-30T00:15:40;15.50;99.90
55642;DHT22;41509;53.108;6.100;2022-08-30T00:18:07;15.40;99.90
55642;DHT22;41509;53.108;6.100;2022-08-30T00:20:35;15.50;99.90
55642;DHT22;41509;53.108;6.100;2022-08-30T00:23:01;15.50;99.90
55642;DHT22;41509;53.108;6.100;2022-08-30T00:25:27;15.50;99.90
55642;DHT22;41509;53.108;6.100;2022-08-30T00:27:52;15.50;99.90
55642;DHT22;41509;53.108;6.100;2022-08-30T00:30:19;15.50;99.90
55642;DHT22;41509;53.108;6.100;2022-08-30T00:32:45;15.50;99.90
55642;DHT22;41509;53.108;6.100;2022-08-30T00:35:12;15.60;99.90
55642;DHT22;41509;53.108;6.100;2022-08-30T00:37:38;15.60;99.90
55642;DHT22;41509;53.108;6.100;2022-08-30T00:40:05;15.70;99.90
55642;DHT22;41509;53.108;6.100;2022-08-30T00:42:32;15.60;99.90
55642;DHT22;41509;53.108;6.100;2022-08-30T00:44:59;15.60;99.90
55642;DHT22;41509;53.108;6.100;2022-08-30T00:47:24;15.60;99.90
55642;DHT22;41509;53.108;6.100;2022-08-30T00:49:53;15.60;99.90
55642;DHT22;41509;53.108;6.100;2022-08-30T00:52:21;15.60;99.90
55642;DHT22;41509;53.108;6.100;2022-08-30T00:54:49;15.60;99.90
55642;DHT22;41509;53.108;6.100;2022-08-30T00:57:16;15.70;99.90
55642;DHT22;41509;53.108;6.100;2022-08-30T00:59:45;15.60;99.90
55642;DHT22;41509;53.108;6.100;2022-08-30T01:02:12;15.60;99.90
55642;DHT22;41509;53.108;6.100;2022-08-30T01:04:39;15.60;99.90
55642;DHT22;41509;53.108;6.100;2022-08-30T01:07:07;15.60;99.90
55642;DHT22;41509;53.108;6.100;2022-08-30T01:09:33;15.60;99.90
55642;DHT22;41509;53.108;6.100;2022-08-30T01:11:59;15.60;99.90
55642;DHT22;41509;53.108;6.100;2022-08-30T01:14:26;15.60;99.90
55642;DHT22;41509;53.108;6.100;2022-08-30T01:16:55;15.60;99.90
55642;DHT22;41509;53.108;6.100;2022-08-30T01:22:18;15.60;99.90
55642;DHT22;41509;53.108;6.100;2022-08-30T01:24:48;15.60;99.90
55642;DHT22;41509;53.108;6.100;2022-08-30T01:27:15;15.60;99.90
55642;DHT22;41509;53.108;6.100;2022-08-30T01:29:41;15.60;99.90
55642;DHT22;41509;53.108;6.100;2022-08-30T01:32:20;15.60;99.90
55642;DHT22;41509;53.108;6.100;2022-08-30T01:34:46;15.70;99.90
55642;DHT22;41509;53.108;6.100;2022-08-30T01:37:33;15.60;99.90
55642;DHT22;41509;53.108;6.100;2022-08-30T01:40:00;15.60;99.90
55642;DHT22;41509;53.108;6.100;2022-08-30T01:42:26;15.60;99.90
55642;DHT22;41509;53.108;6.100;2022-08-30T01:44:52;15.60;99.90
55642;DHT22;41509;53.108;6.100;2022-08-30T01:47:18;15.70;99.90
55642;DHT22;41509;53.108;6.100;2022-08-30T01:49:45;15.60;99.90
55642;DHT22;41509;53.108;6.100;2022-08-30T01:52:11;15.60;99.90
55642;DHT22;41509;53.108;6.100;2022-08-30T01:54:38;15.70;99.90
55642;DHT22;41509;53.108;6.100;2022-08-30T01:57:07;15.70;99.90
55642;DHT22;41509;53.108;6.100;2022-08-30T01:59:35;15.70;99.90
55642;DHT22;41509;53.108;6.100;2022-08-30T02:02:01;15.70;99.90
55642;DHT22;41509;53.108;6.100;2022-08-30T02:04:26;15.60;99.90
55642;DHT22;41509;53.108;6.100;2022-08-30T02:06:55;15.50;99.90
55642;DHT22;41509;53.108;6.100;2022-08-30T02:09:20;15.60;99.90
55642;DHT22;41509;53.108;6.100;2022-08-30T02:11:46;15.60;99.90
55642;DHT22;41509;53.108;6.100;2022-08-30T02:14:12;15.60;99.90
55642;DHT22;41509;53.108;6.100;2022-08-30T02:16:38;15.60;99.90
55642;DHT22;41509;53.108;6.100;2022-08-30T02:19:05;15.60;99.90
55642;DHT22;41509;53.108;6.100;2022-08-30T02:21:31;15.60;99.90
55642;DHT22;41509;53.108;6.100;2022-08-30T02:23:57;15.60;99.90
55642;DHT22;41509;53.108;6.100;2022-08-30T02:26:24;15.50;99.90
55642;DHT22;41509;53.108;6.100;2022-08-30T02:28:51;15.50;99.90
55642;DHT22;41509;53.108;6.100;2022-08-30T02:31:18;15.50;99.90
55642;DHT22;41509;53.108;6.100;2022-08-30T02:33:45;15.40;99.90
55642;DHT22;41509;53.108;6.100;2022-08-30T02:36:10;15.50;99.90
55642;DHT22;41509;53.108;6.100;2022-08-30T02:38:36;15.40;99.90
55642;DHT22;41509;53.108;6.100;2022-08-30T02:41:02;15.40;99.90
55642;DHT22;41509;53.108;6.100;2022-08-30T02:43:27;15.40;99.90
55642;DHT22;41509;53.108;6.100;2022-08-30T02:45:53;15.30;99.90
55642;DHT22;41509;53.108;6.100;2022-08-30T02:48:19;15.30;99.90
55642;DHT22;41509;53.108;6.100;2022-08-30T02:50:48;15.30;99.90
55642;DHT22;41509;53.108;6.100;2022-08-30T02:53:14;15.20;99.90
55642;DHT22;41509;53.108;6.100;2022-08-30T02:55:41;15.20;99.90
55642;DHT22;41509;53.108;6.100;2022-08-30T02:58:07;15.20;99.90
55642;DHT22;41509;53.108;6.100;2022-08-30T03:00:33;15.10;99.90
55642;DHT22;41509;53.108;6.100;2022-08-30T03:02:59;15.10;99.90
55642;DHT22;41509;53.108;6.100;2022-08-30T03:05:28;15.00;99.90
55642;DHT22;41509;53.108;6.100;2022-08-30T03:07:54;15.00;99.90
55642;DHT22;41509;53.108;6.100;2022-08-30T03:10:20;14.90;99.90
55642;DHT22;41509;53.108;6.100;2022-08-30T03:12:46;15.00;99.90
55642;DHT22;41509;53.108;6.100;2022-08-30T03:15:15;14.90;99.90
55642;DHT22;41509;53.108;6.100;2022-08-30T03:17:42;14.90;99.90
55642;DHT22;41509;53.108;6.100;2022-08-30T03:20:09;14.90;99.90
55642;DHT22;41509;53.108;6.100;2022-08-30T03:22:35;14.80;99.90
55642;DHT22;41509;53.108;6.100;2022-08-30T03:25:01;14.80;99.90
55642;DHT22;41509;53.108;6.100;2022-08-30T03:27:27;14.70;99.90
55642;DHT22;41509;53.108;6.100;2022-08-30T03:29:54;14.70;99.90
55642;DHT22;41509;53.108;6.100;2022-08-30T03:32:20;14.60;99.90
55642;DHT22;41509;53.108;6.100;2022-08-30T03:34:46;14.60;99.90
55642;DHT22;41509;53.108;6.100;2022-08-30T03:37:15;14.60;99.90
55642;DHT22;41509;53.108;6.100;2022-08-30T03:39:41;14.60;99.90
55642;DHT22;41509;53.108;6.100;2022-08-30T03:42:09;14.50;99.90
55642;DHT22;41509;53.108;6.100;2022-08-30T03:44:36;14.50;99.90
55642;DHT22;41509;53.108;6.100;2022-08-30T03:47:02;14.50;99.90
55642;DHT22;41509;53.108;6.100;2022-08-30T03:49:28;14.50;99.90
55642;DHT22;41509;53.108;6.100;2022-08-30T03:51:54;14.40;99.90
55642;DHT22;41509;53.108;6.100;2022-08-30T03:54:19;14.40;99.90
55642;DHT22;41509;53.108;6.100;2022-08-30T03:56:45;14.40;99.90
55642;DHT22;41509;53.108;6.100;2022-08-30T03:59:11;14.40;99.90
55642;DHT22;41509;53.108;6.100;2022-08-30T04:01:37;14.30;99.90
55642;DHT22;41509;53.108;6.100;2022-08-30T04:04:03;14.30;99.90
55642;DHT22;41509;53.108;6.100;2022-08-30T04:06:29;14.20;99.90
55642;DHT22;41509;53.108;6.100;2022-08-30T04:08:54;14.20;99.90
55642;DHT22;41509;53.108;6.100;2022-08-30T04:11:20;14.30;99.90
55642;DHT22;41509;53.108;6.100;2022-08-30T04:13:46;14.20;99.90
55642;DHT22;41509;53.108;6.100;2022-08-30T04:16:17;14.20;99.90
55642;DHT22;41509;53.108;6.100;2022-08-30T04:18:42;14.30;99.90
55642;DHT22;41509;53.108;6.100;2022-08-30T04:21:08;14.20;99.90
55642;DHT22;41509;53.108;6.100;2022-08-30T04:23:34;14.20;99.90
55642;DHT22;41509;53.108;6.100;2022-08-30T04:26:00;14.20;99.90
55642;DHT22;41509;53.108;6.100;2022-08-30T04:28:26;14.20;99.90
55642;DHT22;41509;53.108;6.100;2022-08-30T04:30:52;14.20;99.90
55642;DHT22;41509;53.108;6.100;2022-08-30T04:33:17;14.20;99.90
55642;DHT22;41509;53.108;6.100;2022-08-30T04:35:46;14.10;99.90
55642;DHT22;41509;53.108;6.100;2022-08-30T04:38:15;14.10;99.90
55642;DHT22;41509;53.108;6.100;2022-08-30T04:40:42;14.10;99.90
55642;DHT22;41509;53.108;6.100;2022-08-30T04:43:08;14.10;99.90
55642;DHT22;41509;53.108;6.100;2022-08-30T04:45:37;14.10;99.90
55642;DHT22;41509;53.108;6.100;2022-08-30T04:48:05;14.10;99.90
55642;DHT22;41509;53.108;6.100;2022-08-30T04:50:31;14.10;99.90
55642;DHT22;41509;53.108;6.100;2022-08-30T04:52:56;14.10;99.90
55642;DHT22;41509;53.108;6.100;2022-08-30T04:55:22;14.00;99.90
55642;DHT22;41509;53.108;6.100;2022-08-30T04:57:50;14.00;99.90
55642;DHT22;41509;53.108;6.100;2022-08-30T05:00:16;14.00;99.90
55642;DHT22;41509;53.108;6.100;2022-08-30T05:02:42;14.00;99.90
55642;DHT22;41509;53.108;6.100;2022-08-30T05:05:08;14.00;99.90
55642;DHT22;41509;53.108;6.100;2022-08-30T05:07:53;14.00;99.90
55642;DHT22;41509;53.108;6.100;2022-08-30T05:10:19;14.00;99.90
55642;DHT22;41509;53.108;6.100;2022-08-30T05:12:45;14.00;99.90
55642;DHT22;41509;53.108;6.100;2022-08-30T05:15:15;14.00;99.90
55642;DHT22;41509;53.108;6.100;2022-08-30T05:17:40;14.00;99.90
55642;DHT22;41509;53.108;6.100;2022-08-30T05:20:08;14.00;99.90
55642;DHT22;41509;53.108;6.100;2022-08-30T05:22:35;14.00;99.90
55642;DHT22;41509;53.108;6.100;2022-08-30T05:25:01;14.00;99.90
55642;DHT22;41509;53.108;6.100;2022-08-30T05:27:27;14.00;99.90
55642;DHT22;41509;53.108;6.100;2022-08-30T05:29:54;14.00;99.90
55642;DHT22;41509;53.108;6.100;2022-08-30T05:32:20;14.10;99.90
55642;DHT22;41509;53.108;6.100;2022-08-30T05:34:45;14.10;99.90
55642;DHT22;41509;53.108;6.100;2022-08-30T05:37:11;14.10;99.90
55642;DHT22;41509;53.108;6.100;2022-08-30T05:39:36;14.10;99.90
55642;DHT22;41509;53.108;6.100;2022-08-30T05:42:02;14.20;99.90
55642;DHT22;41509;53.108;6.100;2022-08-30T05:44:28;14.20;99.90
55642;DHT22;41509;53.108;6.100;2022-08-30T05:46:54;14.20;99.90
55642;DHT22;41509;53.108;6.100;2022-08-30T05:49:19;14.20;99.90
55642;DHT22;41509;53.108;6.100;2022-08-30T05:51:46;14.30;99.90
55642;DHT22;41509;53.108;6.100;2022-08-30T05:54:13;14.30;99.90
55642;DHT22;41509;53.108;6.100;2022-08-30T05:56:41;14.30;99.90
55642;DHT22;41509;53.108;6.100;2022-08-30T05:59:07;14.30;99.90
55642;DHT22;41509;53.108;6.100;2022-08-30T06:01:36;14.30;99.90
55642;DHT22;41509;53.108;6.100;2022-08-30T06:04:03;14.40;99.90
55642;DHT22;41509;53.108;6.100;2022-08-30T06:06:31;14.40;99.90
55642;DHT22;41509;53.108;6.100;2022-08-30T06:08:57;14.50;99.90
55642;DHT22;41509;53.108;6.100;2022-08-30T06:11:25;14.50;99.90
55642;DHT22;41509;53.108;6.100;2022-08-30T06:13:52;14.50;99.90
55642;DHT22;41509;53.108;6.100;2022-08-30T06:16:20;14.60;99.90
55642;DHT22;41509;53.108;6.100;2022-08-30T06:18:47;14.60;99.90
55642;DHT22;41509;53.108;6.100;2022-08-30T06:21:17;14.70;99.90
55642;DHT22;41509;53.108;6.100;2022-08-30T06:23:45;14.80;99.90
55642;DHT22;41509;53.108;6.100;2022-08-30T06:26:14;14.80;99.90
55642;DHT22;41509;53.108;6.100;2022-08-30T06:28:43;14.80;99.90
55642;DHT22;41509;53.108;6.100;2022-08-30T06:31:12;14.90;99.90
55642;DHT22;41509;53.108;6.100;2022-08-30T06:33:38;15.00;99.90
55642;DHT22;41509;53.108;6.100;2022-08-30T06:36:06;15.00;99.90
55642;DHT22;41509;53.108;6.100;2022-08-30T06:38:32;15.10;99.90
55642;DHT22;41509;53.108;6.100;2022-08-30T06:40:58;15.20;99.90
55642;DHT22;41509;53.108;6.100;2022-08-30T06:43:24;15.20;99.90
55642;DHT22;41509;53.108;6.100;2022-08-30T06:45:49;15.20;99.90
55642;DHT22;41509;53.108;6.100;2022-08-30T06:48:15;15.30;99.90
55642;DHT22;41509;53.108;6.100;2022-08-30T06:50:41;15.30;99.90
55642;DHT22;41509;53.108;6.100;2022-08-30T06:53:08;15.40;99.90
55642;DHT22;41509;53.108;6.100;2022-08-30T06:55:34;15.40;99.90
55642;DHT22;41509;53.108;6.100;2022-08-30T06:58:00;15.40;99.90
55642;DHT22;41509;53.108;6.100;2022-08-30T07:00:27;15.50;99.90
55642;DHT22;41509;53.108;6.100;2022-08-30T07:02:53;15.60;99.90
55642;DHT22;41509;53.108;6.100;2022-08-30T07:05:19;15.70;99.90
55642;DHT22;41509;53.108;6.100;2022-08-30T07:07:48;15.70;99.90
55642;DHT22;41509;53.108;6.100;2022-08-30T07:10:15;15.80;99.90
55642;DHT22;41509;53.108;6.100;2022-08-30T07:12:41;15.90;99.90
55642;DHT22;41509;53.108;6.100;2022-08-30T07:15:07;15.90;99.90
55642;DHT22;41509;53.108;6.100;2022-08-30T07:17:34;16.00;99.90
55642;DHT22;41509;53.108;6.100;2022-08-30T07:20:19;16.00;99.90
55642;DHT22;41509;53.108;6.100;2022-08-30T07:22:46;16.10;99.90
55642;DHT22;41509;53.108;6.100;2022-08-30T07:25:13;16.20;99.90
55642;DHT22;41509;53.108;6.100;2022-08-30T07:27:39;16.30;99.90
55642;DHT22;41509;53.108;6.100;2022-08-30T07:30:06;16.30;99.90
55642;DHT22;41509;53.108;6.100;2022-08-30T07:32:32;16.40;99.90
55642;DHT22;41509;53.108;6.100;2022-08-30T07:34:57;16.40;99.90
55642;DHT22;41509;53.108;6.100;2022-08-30T07:37:23;16.50;99.90
55642;DHT22;41509;53.108;6.100;2022-08-30T07:39:49;16.60;99.90
55642;DHT22;41509;53.108;6.100;2022-08-30T07:42:15;16.60;99.90
55642;DHT22;41509;53.108;6.100;2022-08-30T07:44:41;16.70;99.90
55642;DHT22;41509;53.108;6.100;2022-08-30T07:47:06;16.80;99.90
55642;DHT22;41509;53.108;6.100;2022-08-30T07:49:32;16.80;99.90
55642;DHT22;41509;53.108;6.100;2022-08-30T07:51:57;16.90;99.90
55642;DHT22;41509;53.108;6.100;2022-08-30T07:54:23;17.00;99.90
55642;DHT22;41509;53.108;6.100;2022-08-30T07:56:48;17.10;99.90
55642;DHT22;41509;53.108;6.100;2022-08-30T07:59:15;17.20;99.90
55642;DHT22;41509;53.108;6.100;2022-08-30T08:01:40;17.20;99.90
55642;DHT22;41509;53.108;6.100;2022-08-30T08:04:07;17.30;99.90
55642;DHT22;41509;53.108;6.100;2022-08-30T08:06:37;17.40;99.90
55642;DHT22;41509;53.108;6.100;2022-08-30T08:09:04;17.50;99.90
55642;DHT22;41509;53.108;6.100;2022-08-30T08:11:30;17.50;99.90
55642;DHT22;41509;53.108;6.100;2022-08-30T08:13:56;17.60;99.90
55642;DHT22;41509;53.108;6.100;2022-08-30T08:16:25;17.60;99.90
55642;DHT22;41509;53.108;6.100;2022-08-30T08:18:52;17.70;99.90
55642;DHT22;41509;53.108;6.100;2022-08-30T08:21:19;17.70;99.90
55642;DHT22;41509;53.108;6.100;2022-08-30T08:23:45;17.90;99.90
55642;DHT22;41509;53.108;6.100;2022-08-30T08:26:11;18.00;99.90
55642;DHT22;41509;53.108;6.100;2022-08-30T08:28:36;18.00;99.90
55642;DHT22;41509;53.108;6.100;2022-08-30T08:31:02;18.10;99.90
55642;DHT22;41509;53.108;6.100;2022-08-30T08:33:28;18.10;99.90
55642;DHT22;41509;53.108;6.100;2022-08-30T08:35:54;18.20;99.90
55642;DHT22;41509;53.108;6.100;2022-08-30T08:38:19;18.30;99.90
55642;DHT22;41509;53.108;6.100;2022-08-30T08:40:58;18.30;99.90
55642;DHT22;41509;53.108;6.100;2022-08-30T08:43:27;18.40;99.90
55642;DHT22;41509;53.108;6.100;2022-08-30T08:46:01;18.40;99.90
55642;DHT22;41509;53.108;6.100;2022-08-30T08:48:55;18.50;99.90
55642;DHT22;41509;53.108;6.100;2022-08-30T08:51:26;18.60;99.90
55642;DHT22;41509;53.108;6.100;2022-08-30T08:57:16;18.60;99.90
55642;DHT22;41509;53.108;6.100;2022-08-30T08:59:42;18.70;99.90
55642;DHT22;41509;53.108;6.100;2022-08-30T09:02:24;18.70;99.90
55642;DHT22;41509;53.108;6.100;2022-08-30T09:04:54;18.90;99.90
55642;DHT22;41509;53.108;6.100;2022-08-30T09:07:23;19.00;99.90
55642;DHT22;41509;53.108;6.100;2022-08-30T09:09:50;19.10;99.90
55642;DHT22;41509;53.108;6.100;2022-08-30T09:12:16;19.20;99.90
55642;DHT22;41509;53.108;6.100;2022-08-30T09:14:47;19.30;99.90
55642;DHT22;41509;53.108;6.100;2022-08-30T09:17:15;19.40;99.90
55642;DHT22;41509;53.108;6.100;2022-08-30T09:19:42;19.50;99.90
55642;DHT22;41509;53.108;6.100;2022-08-30T09:27:49;19.70;99.90
55642;DHT22;41509;53.108;6.100;2022-08-30T09:30:22;19.80;99.90
55642;DHT22;41509;53.108;6.100;2022-08-30T09:35:33;19.90;99.90
55642;DHT22;41509;53.108;6.100;2022-08-30T09:38:09;19.90;99.90
55642;DHT22;41509;53.108;6.100;2022-08-30T09:40:41;20.00;99.90
55642;DHT22;41509;53.108;6.100;2022-08-30T09:43:20;20.10;99.90
55642;DHT22;41509;53.108;6.100;2022-08-30T09:46:05;20.20;99.90
55642;DHT22;41509;53.108;6.100;2022-08-30T09:48:40;20.30;99.90
55642;DHT22;41509;53.108;6.100;2022-08-30T09:51:20;20.40;99.90
55642;DHT22;41509;53.108;6.100;2022-08-30T09:54:07;20.40;99.90
55642;DHT22;41509;53.108;6.100;2022-08-30T09:57:00;20.50;99.90
55642;DHT22;41509;53.108;6.100;2022-08-30T09:59:36;20.70;99.90
55642;DHT22;41509;53.108;6.100;2022-08-30T10:04:44;20.80;99.90
55642;DHT22;41509;53.108;6.100;2022-08-30T10:07:19;21.00;99.90
55642;DHT22;41509;53.108;6.100;2022-08-30T10:09:55;21.00;99.90
55642;DHT22;41509;53.108;6.100;2022-08-30T10:12:39;21.00;99.90
55642;DHT22;41509;53.108;6.100;2022-08-30T10:15:24;21.00;99.90
55642;DHT22;41509;53.108;6.100;2022-08-30T10:18:02;21.10;99.90
55642;DHT22;41509;53.108;6.100;2022-08-30T10:23:12;21.30;99.90
55642;DHT22;41509;53.108;6.100;2022-08-30T10:25:56;21.30;99.90
55642;DHT22;41509;53.108;6.100;2022-08-30T10:28:30;21.40;99.90
55642;DHT22;41509;53.108;6.100;2022-08-30T10:31:03;21.50;99.90
55642;DHT22;41509;53.108;6.100;2022-08-30T10:33:42;21.50;99.90
55642;DHT22;41509;53.108;6.100;2022-08-30T10:36:11;21.40;99.90
55642;DHT22;41509;53.108;6.100;2022-08-30T10:38:41;21.40;99.90
55642;DHT22;41509;53.108;6.100;2022-08-30T10:43:55;21.50;99.90
55642;DHT22;41509;53.108;6.100;2022-08-30T10:49:18;21.50;99.90
55642;DHT22;41509;53.108;6.100;2022-08-30T10:54:39;21.60;99.90
55642;DHT22;41509;53.108;6.100;2022-08-30T10:57:07;21.60;99.90
55642;DHT22;41509;53.108;6.100;2022-08-30T10:59:32;21.70;99.90
55642;DHT22;41509;53.108;6.100;2022-08-30T11:08:16;22.10;99.90
55642;DHT22;41509;53.108;6.100;2022-08-30T11:13:50;22.30;99.90
55642;DHT22;41509;53.108;6.100;2022-08-30T11:16:16;22.40;99.90
55642;DHT22;41509;53.108;6.100;2022-08-30T11:21:40;22.50;99.90
55642;DHT22;41509;53.108;6.100;2022-08-30T11:24:11;22.60;98.60
55642;DHT22;41509;53.108;6.100;2022-08-30T11:29:34;22.80;98.60
55642;DHT22;41509;53.108;6.100;2022-08-30T11:34:55;22.90;96.10
55642;DHT22;41509;53.108;6.100;2022-08-30T11:37:36;22.90;94.90
55642;DHT22;41509;53.108;6.100;2022-08-30T11:51:50;23.30;94.70
55642;DHT22;41509;53.108;6.100;2022-08-30T11:57:49;23.30;91.40
55642;DHT22;41509;53.108;6.100;2022-08-30T12:00:35;23.40;90.60
55642;DHT22;41509;53.108;6.100;2022-08-30T12:03:30;23.40;92.60
55642;DHT22;41509;53.108;6.100;2022-08-30T12:06:08;23.50;93.60
55642;DHT22;41509;53.108;6.100;2022-08-30T12:08:42;23.60;93.50
55642;DHT22;41509;53.108;6.100;2022-08-30T12:13:54;23.90;92.40
55642;DHT22;41509;53.108;6.100;2022-08-30T12:16:23;23.90;92.80
55642;DHT22;41509;53.108;6.100;2022-08-30T12:19:19;24.10;92.70
55642;DHT22;41509;53.108;6.100;2022-08-30T12:22:03;24.10;92.40
55642;DHT22;41509;53.108;6.100;2022-08-30T12:24:42;24.20;91.20
55642;DHT22;41509;53.108;6.100;2022-08-30T12:27:35;24.30;92.20
55642;DHT22;41509;53.108;6.100;2022-08-30T12:30:25;24.30;92.80
55642;DHT22;41509;53.108;6.100;2022-08-30T12:32:55;24.50;92.00
55642;DHT22;41509;53.108;6.100;2022-08-30T12:35:43;24.50;91.00
55642;DHT22;41509;53.108;6.100;2022-08-30T12:38:18;24.50;90.40
55642;DHT22;41509;53.108;6.100;2022-08-30T12:40:59;24.60;90.70
55642;DHT22;41509;53.108;6.100;2022-08-30T12:43:49;24.80;91.00
55642;DHT22;41509;53.108;6.100;2022-08-30T12:46:24;24.90;89.90
55642;DHT22;41509;53.108;6.100;2022-08-30T12:48:53;25.00;90.20
55642;DHT22;41509;53.108;6.100;2022-08-30T12:51:43;25.10;88.20
55642;DHT22;41509;53.108;6.100;2022-08-30T12:54:47;25.20;86.00
55642;DHT22;41509;53.108;6.100;2022-08-30T12:57:12;25.10;84.10
55642;DHT22;41509;53.108;6.100;2022-08-30T12:59:54;25.10;88.10
55642;DHT22;41509;53.108;6.100;2022-08-30T13:02:43;25.00;87.80
55642;DHT22;41509;53.108;6.100;2022-08-30T13:13:43;25.10;87.30
55642;DHT22;41509;53.108;6.100;2022-08-30T13:18:49;24.80;85.50
55642;DHT22;41509;53.108;6.100;2022-08-30T13:21:31;24.80;84.60
55642;DHT22;41509;53.108;6.100;2022-08-30T13:24:09;24.90;85.80
55642;DHT22;41509;53.108;6.100;2022-08-30T13:26:37;25.10;84.70
55642;DHT22;41509;53.108;6.100;2022-08-30T13:29:22;25.20;85.70
55642;DHT22;41509;53.108;6.100;2022-08-30T13:31:49;25.20;84.60
55642;DHT22;41509;53.108;6.100;2022-08-30T13:34:20;25.00;85.70
55642;DHT22;41509;53.108;6.100;2022-08-30T13:37:17;24.80;86.00
55642;DHT22;41509;53.108;6.100;2022-08-30T13:39:43;24.70;86.90
55642;DHT22;41509;53.108;6.100;2022-08-30T13:42:09;24.80;87.10
55642;DHT22;41509;53.108;6.100;2022-08-30T13:44:37;24.80;87.10
55642;DHT22;41509;53.108;6.100;2022-08-30T13:47:05;24.80;87.60
55642;DHT22;41509;53.108;6.100;2022-08-30T13:49:45;24.90;88.40
55642;DHT22;41509;53.108;6.100;2022-08-30T13:52:21;24.90;88.20
55642;DHT22;41509;53.108;6.100;2022-08-30T13:54:51;25.00;87.20
55642;DHT22;41509;53.108;6.100;2022-08-30T13:57:19;24.90;87.00
55642;DHT22;41509;53.108;6.100;2022-08-30T13:59:51;24.80;87.00
55642;DHT22;41509;53.108;6.100;2022-08-30T14:02:25;24.80;88.30
55642;DHT22;41509;53.108;6.100;2022-08-30T14:07:44;25.00;88.20
55642;DHT22;41509;53.108;6.100;2022-08-30T14:10:19;24.90;88.00
55642;DHT22;41509;53.108;6.100;2022-08-30T14:13:07;24.80;87.20
55642;DHT22;41509;53.108;6.100;2022-08-30T14:16:18;24.70;87.60
55642;DHT22;41509;53.108;6.100;2022-08-30T14:22:45;24.70;89.90
55642;DHT22;41509;53.108;6.100;2022-08-30T14:25:49;24.90;89.40
55642;DHT22;41509;53.108;6.100;2022-08-30T14:28:29;24.90;89.30
55642;DHT22;41509;53.108;6.100;2022-08-30T14:31:04;24.90;89.60
55642;DHT22;41509;53.108;6.100;2022-08-30T14:37:10;25.00;87.30
55642;DHT22;41509;53.108;6.100;2022-08-30T14:39:48;25.00;88.60
55642;DHT22;41509;53.108;6.100;2022-08-30T14:42:22;24.80;87.50
55642;DHT22;41509;53.108;6.100;2022-08-30T14:45:20;24.70;89.00
55642;DHT22;41509;53.108;6.100;2022-08-30T14:47:52;24.80;87.50
55642;DHT22;41509;53.108;6.100;2022-08-30T14:54:06;24.60;89.70
55642;DHT22;41509;53.108;6.100;2022-08-30T14:56:53;24.70;90.60
55642;DHT22;41509;53.108;6.100;2022-08-30T14:59:22;24.70;90.80
55642;DHT22;41509;53.108;6.100;2022-08-30T15:02:02;24.80;90.50
55642;DHT22;41509;53.108;6.100;2022-08-30T15:04:39;24.80;90.60
55642;DHT22;41509;53.108;6.100;2022-08-30T15:18:22;24.70;91.30
55642;DHT22;41509;53.108;6.100;2022-08-30T15:21:50;24.70;92.40
55642;DHT22;41509;53.108;6.100;2022-08-30T15:24:23;24.70;90.90
55642;DHT22;41509;53.108;6.100;2022-08-30T15:26:56;24.60;92.10
55642;DHT22;41509;53.108;6.100;2022-08-30T15:29:37;24.60;92.70
55642;DHT22;41509;53.108;6.100;2022-08-30T15:32:25;24.60;93.20
55642;DHT22;41509;53.108;6.100;2022-08-30T15:34:55;24.60;93.50
55642;DHT22;41509;53.108;6.100;2022-08-30T15:37:29;24.60;93.50
55642;DHT22;41509;53.108;6.100;2022-08-30T15:40:16;24.50;93.70
55642;DHT22;41509;53.108;6.100;2022-08-30T15:42:58;24.50;93.60
55642;DHT22;41509;53.108;6.100;2022-08-30T15:46:14;24.60;93.80
55642;DHT22;41509;53.108;6.100;2022-08-30T15:49:09;24.60;93.80
55642;DHT22;41509;53.108;6.100;2022-08-30T15:51:48;24.60;93.70
55642;DHT22;41509;53.108;6.100;2022-08-30T15:54:21;24.50;93.80
55642;DHT22;41509;53.108;6.100;2022-08-30T15:59:55;24.40;94.60
55642;DHT22;41509;53.108;6.100;2022-08-30T16:02:26;24.20;94.60
55642;DHT22;41509;53.108;6.100;2022-08-30T16:04:51;24.00;95.40
55642;DHT22;41509;53.108;6.100;2022-08-30T16:07:46;23.90;96.00
55642;DHT22;41509;53.108;6.100;2022-08-30T16:10:38;23.80;96.70
55642;DHT22;41509;53.108;6.100;2022-08-30T16:13:45;23.80;96.50
55642;DHT22;41509;53.108;6.100;2022-08-30T16:16:22;23.60;97.10
55642;DHT22;41509;53.108;6.100;2022-08-30T16:24:45;23.40;98.60
55642;DHT22;41509;53.108;6.100;2022-08-30T16:27:54;23.30;98.90
55642;DHT22;41509;53.108;6.100;2022-08-30T16:31:00;23.20;99.40
55642;DHT22;41509;53.108;6.100;2022-08-30T16:33:51;22.90;99.90
55642;DHT22;41509;53.108;6.100;2022-08-30T16:39:41;22.70;99.90
55642;DHT22;41509;53.108;6.100;2022-08-30T16:42:07;22.60;99.90
55642;DHT22;41509;53.108;6.100;2022-08-30T16:48:29;22.30;99.90
55642;DHT22;41509;53.108;6.100;2022-08-30T16:51:10;22.20;99.90
55642;DHT22;41509;53.108;6.100;2022-08-30T16:53:37;22.00;99.90
55642;DHT22;41509;53.108;6.100;2022-08-30T16:56:08;22.00;99.90
55642;DHT22;41509;53.108;6.100;2022-08-30T16:58:35;21.90;99.90
55642;DHT22;41509;53.108;6.100;2022-08-30T17:01:00;21.80;99.90
55642;DHT22;41509;53.108;6.100;2022-08-30T17:03:26;21.70;99.90
55642;DHT22;41509;53.108;6.100;2022-08-30T17:05:52;21.60;99.90
55642;DHT22;41509;53.108;6.100;2022-08-30T17:08:17;21.60;99.90
55642;DHT22;41509;53.108;6.100;2022-08-30T17:10:43;21.50;99.90
55642;DHT22;41509;53.108;6.100;2022-08-30T17:13:08;21.40;99.90
55642;DHT22;41509;53.108;6.100;2022-08-30T17:15:35;21.30;99.90
55642;DHT22;41509;53.108;6.100;2022-08-30T17:18:00;21.30;99.90
55642;DHT22;41509;53.108;6.100;2022-08-30T17:21:00;21.30;99.90
55642;DHT22;41509;53.108;6.100;2022-08-30T17:23:27;21.20;99.90
55642;DHT22;41509;53.108;6.100;2022-08-30T17:25:54;21.20;99.90
55642;DHT22;41509;53.108;6.100;2022-08-30T17:28:27;21.10;99.90
55642;DHT22;41509;53.108;6.100;2022-08-30T17:30:57;21.10;99.90
55642;DHT22;41509;53.108;6.100;2022-08-30T17:33:35;21.10;99.90
55642;DHT22;41509;53.108;6.100;2022-08-30T17:36:08;21.00;99.90
55642;DHT22;41509;53.108;6.100;2022-08-30T17:38:41;20.90;99.90
55642;DHT22;41509;53.108;6.100;2022-08-30T17:41:17;20.90;99.90
55642;DHT22;41509;53.108;6.100;2022-08-30T17:43:46;20.80;99.90
55642;DHT22;41509;53.108;6.100;2022-08-30T17:46:14;20.80;99.90
55642;DHT22;41509;53.108;6.100;2022-08-30T17:48:45;20.80;99.90
55642;DHT22;41509;53.108;6.100;2022-08-30T17:51:35;20.70;99.90